Time;durP1;ratioP1;P1;durP2;ratioP2;P2;SDS_P1;SDS_P2;PMS_P1;PMS_P2;Temp;Humidity;BMP_temperature;BMP_pressure;BME280_temperature;BME280_humidity;BME280_pressure;Samples;Min_cycle;Max_cycle;Signal;HPM_P1;HPM_P2
2023/03/19 00:01:03;;;;;;;24.48;13.68;;;;;;;9.56;82.26;101126.13;5093669;28;20055;-92
2023/03/19 00:03:31;;;;;;;24.30;13.70;;;;;;;9.48;82.12;101118.41;5095931;28;20058;-92
2023/03/19 00:06:01;;;;;;;22.35;13.10;;;;;;;9.49;81.80;101120.06;5096451;28;20399;-92
2023/03/19 00:08:29;;;;;;;23.92;14.13;;;;;;;9.41;82.50;101119.44;5096934;28;20047;-91
2023/03/19 00:10:57;;;;;;;23.70;12.32;;;;;;;9.35;83.17;101119.66;5095627;28;20055;-91
2023/03/19 00:13:25;;;;;;;22.92;12.27;;;;;;;9.27;83.01;101118.19;5077879;28;20054;-91
2023/03/19 00:15:53;;;;;;;24.40;12.23;;;;;;;9.33;82.79;101121.81;5095806;28;20048;-91
2023/03/19 00:18:20;;;;;;;20.60;11.88;;;;;;;9.36;83.11;101115.81;5104832;28;20048;-91
2023/03/19 00:20:48;;;;;;;23.00;12.07;;;;;;;9.36;83.09;101116.66;5103431;28;20056;-92
2023/03/19 00:23:16;;;;;;;24.70;13.45;;;;;;;9.26;83.13;101102.91;5097238;28;20044;-91
2023/03/19 00:25:44;;;;;;;22.65;12.98;;;;;;;9.20;83.92;101117.59;5097028;28;20068;-91
2023/03/19 00:28:12;;;;;;;21.63;12.60;;;;;;;9.14;84.55;101120.25;5096725;28;20056;-92
2023/03/19 00:30:40;;;;;;;24.08;12.77;;;;;;;9.17;84.41;101123.56;5077579;28;20051;-92
2023/03/19 00:33:08;;;;;;;24.02;13.02;;;;;;;9.14;84.58;101123.00;5096087;28;20588;-91
2023/03/19 00:35:39;;;;;;;22.33;12.70;;;;;;;9.08;84.38;101129.47;5078564;28;20040;-91
2023/03/19 00:38:07;;;;;;;25.60;12.57;;;;;;;9.05;84.62;101124.53;5097359;28;20047;-91
2023/03/19 00:40:36;;;;;;;24.02;12.98;;;;;;;9.08;85.10;101121.28;5097514;28;20040;-91
2023/03/19 00:43:04;;;;;;;23.33;13.32;;;;;;;9.11;84.70;101114.50;5096456;28;20052;-91
2023/03/19 00:45:32;;;;;;;24.05;13.23;;;;;;;9.15;84.73;101115.63;5078274;28;20055;-91
2023/03/19 00:48:01;;;;;;;23.65;13.63;;;;;;;9.19;83.89;101110.47;5078115;28;20048;-91
2023/03/19 00:50:29;;;;;;;23.77;13.88;;;;;;;9.13;84.35;101110.44;5096158;28;20394;-91
2023/03/19 00:52:57;;;;;;;21.38;13.23;;;;;;;9.01;84.48;101113.28;5095358;28;20059;-91
2023/03/19 00:55:26;;;;;;;29.60;14.13;;;;;;;8.93;85.78;101121.94;5097319;28;20051;-91
2023/03/19 00:57:54;;;;;;;28.33;14.63;;;;;;;8.99;85.07;101122.81;5096750;28;20032;-91
2023/03/19 01:00:23;;;;;;;25.63;14.57;;;;;;;8.97;84.71;101122.25;5079233;28;20040;-91
2023/03/19 01:02:51;;;;;;;26.83;14.98;;;;;;;8.98;85.19;101116.53;5096356;28;20055;-90
2023/03/19 01:05:19;;;;;;;27.80;14.63;;;;;;;9.02;83.58;101103.22;5096663;28;20055;-90
2023/03/19 01:07:47;;;;;;;30.27;14.05;;;;;;;9.13;82.92;101102.25;5078227;28;20048;-91
2023/03/19 01:10:20;;;;;;;27.73;14.23;;;;;;;9.26;82.12;101100.16;5078675;28;20043;-91
2023/03/19 01:12:49;;;;;;;28.55;14.25;;;;;;;9.27;82.30;101097.19;5096398;28;20048;-91
2023/03/19 01:15:18;;;;;;;29.67;15.23;;;;;;;9.31;81.88;101083.84;5078284;28;20363;-91
2023/03/19 01:17:46;;;;;;;30.88;14.73;;;;;;;9.31;82.58;101086.56;5077933;28;20054;-91
2023/03/19 01:20:17;;;;;;;28.80;14.43;;;;;;;9.40;82.22;101085.00;5078547;28;20044;-91
2023/03/19 01:22:45;;;;;;;26.83;13.88;;;;;;;9.45;81.16;101086.13;5097010;28;20052;-91
2023/03/19 01:25:13;;;;;;;28.63;15.00;;;;;;;9.39;81.31;101094.28;5096768;28;20036;-91
2023/03/19 01:27:51;;;;;;;28.27;14.00;;;;;;;9.35;81.68;101095.91;5062425;28;20367;-90
2023/03/19 01:30:20;;;;;;;27.15;14.20;;;;;;;9.27;81.91;101093.63;5079140;28;20048;-91
2023/03/19 01:33:07;;;;;;;25.25;14.07;;;;;;;9.21;82.29;101097.38;5096088;28;20052;-91
2023/03/19 01:36:01;;;;;;;26.60;13.45;;;;;;;9.13;82.64;101094.03;5077897;28;20047;-91
2023/03/19 01:38:36;;;;;;;26.08;14.18;;;;;;;9.06;83.21;101079.78;5077884;28;20047;-91
2023/03/19 01:41:08;;;;;;;29.63;15.00;;;;;;;9.06;82.32;101068.84;5093623;28;20044;-91
2023/03/19 01:43:37;;;;;;;27.45;14.07;;;;;;;9.12;81.68;101067.81;5076243;28;20067;-91
2023/03/19 01:46:27;;;;;;;29.50;14.63;;;;;;;9.09;81.71;101065.59;5076073;28;20040;-90
2023/03/19 01:49:14;;;;;;;26.77;14.48;;;;;;;9.19;81.62;101061.31;5095793;28;20040;-90
2023/03/19 01:51:47;;;;;;;28.95;14.07;;;;;;;9.21;81.48;101048.22;5076921;28;20055;-91
2023/03/19 01:54:36;;;;;;;26.77;14.13;;;;;;;9.20;81.40;101065.69;5076389;28;20513;-91
2023/03/19 01:57:30;;;;;;;27.42;13.88;;;;;;;8.92;82.94;101070.34;5076208;28;20048;-91
2023/03/19 02:00:16;;;;;;;32.17;15.20;;;;;;;8.92;83.02;101079.34;5095212;28;20063;-91
2023/03/19 02:02:52;;;;;;;30.75;14.77;;;;;;;8.93;83.31;101069.25;5094639;28;20059;-91
2023/03/19 02:05:43;;;;;;;24.60;13.13;;;;;;;8.95;82.09;101064.38;5079329;28;20063;-91
2023/03/19 02:08:16;;;;;;;25.90;14.55;;;;;;;9.09;81.99;101060.13;5076743;28;20055;-91
2023/03/19 02:10:46;;;;;;;36.40;14.98;;;;;;;9.10;82.51;101059.03;5084104;28;20405;-91
2023/03/19 02:13:15;;;;;;;27.00;15.25;;;;;;;9.11;81.47;101063.44;5104114;28;20056;-90
2023/03/19 02:15:43;;;;;;;28.95;14.55;;;;;;;9.07;82.29;101070.50;5094744;28;20063;-91
2023/03/19 02:18:12;;;;;;;28.08;15.40;;;;;;;8.98;82.43;101072.88;5077434;28;20040;-91
2023/03/19 02:20:46;;;;;;;27.70;15.15;;;;;;;8.96;81.45;101063.28;5076992;28;20052;-91
2023/03/19 02:23:51;;;;;;;28.90;13.88;;;;;;;8.98;81.42;101056.50;5077110;28;20048;-91
2023/03/19 02:26:30;;;;;;;26.50;13.98;;;;;;;8.97;81.61;101059.47;5076073;28;20036;-91
2023/03/19 02:29:03;;;;;;;28.42;14.23;;;;;;;8.97;81.93;101060.31;5076161;28;20039;-90
2023/03/19 02:31:34;;;;;;;25.60;14.40;;;;;;;8.91;82.74;101055.88;5076759;28;20040;-91
2023/03/19 02:34:25;;;;;;;24.65;13.75;;;;;;;8.90;82.57;101061.59;5060844;28;20056;-91
2023/03/19 02:36:58;;;;;;;27.48;13.95;;;;;;;8.94;82.34;101065.47;5076743;28;20051;-91
2023/03/19 02:39:36;;;;;;;23.50;13.00;;;;;;;8.94;83.40;101070.91;5094836;28;20048;-91
2023/03/19 02:42:05;;;;;;;23.45;12.55;;;;;;;8.80;84.62;101065.03;5094989;28;20404;-91
2023/03/19 02:44:33;;;;;;;26.13;13.80;;;;;;;8.82;85.22;101069.16;5076233;28;20056;-91
2023/03/19 02:47:01;;;;;;;26.08;13.00;;;;;;;8.81;85.72;101069.41;5075683;28;20048;-91
2023/03/19 02:49:29;;;;;;;19.95;11.27;;;;;;;8.63;87.09;101071.38;5093688;28;20052;-91
2023/03/19 02:51:57;;;;;;;22.00;11.77;;;;;;;8.77;87.11;101066.38;5092967;28;20056;-91
2023/03/19 02:54:25;;;;;;;20.77;11.77;;;;;;;8.76;88.14;101070.19;5075398;28;20405;-91
2023/03/19 02:56:53;;;;;;;24.52;12.13;;;;;;;8.71;87.89;101072.84;5093420;28;20044;-91
2023/03/19 02:59:21;;;;;;;22.73;11.65;;;;;;;8.62;89.25;101071.63;5092834;28;20063;-91
2023/03/19 03:01:49;;;;;;;26.00;12.77;;;;;;;8.53;89.68;101072.09;5074938;28;20051;-91
2023/03/19 03:04:17;;;;;;;21.92;11.50;;;;;;;8.54;89.61;101072.91;5074593;28;20047;-91
2023/03/19 03:06:45;;;;;;;16.63;11.02;;;;;;;8.55;89.88;101069.13;5092397;28;20044;-91
2023/03/19 03:09:14;;;;;;;23.17;11.40;;;;;;;8.57;89.78;101073.22;5074368;28;20483;-91
2023/03/19 03:11:43;;;;;;;18.02;11.35;;;;;;;8.63;89.20;101082.31;5058138;28;20051;-91
2023/03/19 03:14:11;;;;;;;21.02;12.18;;;;;;;8.61;89.37;101079.00;5074271;28;20048;-91
2023/03/19 03:16:40;;;;;;;20.05;11.30;;;;;;;8.58;90.33;101071.31;5074450;28;20040;-91
2023/03/19 03:19:08;;;;;;;19.10;11.30;;;;;;;8.70;89.11;101082.13;5073715;28;20036;-90
2023/03/19 03:21:37;;;;;;;17.50;10.52;;;;;;;8.74;88.94;101080.50;5091790;28;20052;-91
2023/03/19 03:24:05;;;;;;;22.77;11.85;;;;;;;8.81;88.75;101075.66;5073909;28;20498;-91
2023/03/19 03:26:34;;;;;;;20.52;11.80;;;;;;;8.96;87.69;101068.75;5091124;28;20051;-91
2023/03/19 03:29:03;;;;;;;19.92;11.32;;;;;;;9.03;87.24;101072.09;5092335;28;20048;-92
2023/03/19 03:31:32;;;;;;;21.75;12.10;;;;;;;8.97;87.03;101075.84;5091362;28;20040;-91
2023/03/19 03:34:00;;;;;;;24.10;12.65;;;;;;;9.00;88.07;101080.81;5092319;28;20052;-91
2023/03/19 03:36:28;;;;;;;21.50;10.88;;;;;;;8.91;87.13;101079.59;5091084;28;20048;-91
2023/03/19 03:38:56;;;;;;;24.33;11.32;;;;;;;8.84;87.88;101083.38;5091624;28;20148;-91
2023/03/19 03:41:24;;;;;;;20.60;12.73;;;;;;;8.90;87.50;101086.16;5073912;28;20048;-91
2023/03/19 03:43:55;;;;;;;20.98;11.10;;;;;;;9.01;86.92;101085.19;5092093;28;20048;-91
2023/03/19 03:46:23;;;;;;;21.83;11.25;;;;;;;9.10;86.39;101085.53;5074194;28;20048;-91
2023/03/19 03:48:52;;;;;;;22.95;11.85;;;;;;;9.08;87.60;101094.00;5073539;28;20505;-91
2023/03/19 03:51:21;;;;;;;21.08;11.18;;;;;;;9.01;87.38;101087.91;5091691;28;20375;-91
2023/03/19 03:53:49;;;;;;;21.02;11.90;;;;;;;9.09;87.09;101083.91;5091487;28;20044;-91
2023/03/19 03:56:17;;;;;;;18.42;11.38;;;;;;;9.05;87.20;101093.69;5092038;28;20051;-91
2023/03/19 03:58:46;;;;;;;19.60;11.00;;;;;;;9.12;86.92;101083.38;5072998;28;20399;-91
2023/03/19 04:01:15;;;;;;;22.52;11.30;;;;;;;9.10;88.34;101091.00;5074058;28;20403;-90
2023/03/19 04:03:46;;;;;;;20.75;11.10;;;;;;;9.05;87.46;101090.94;5080955;28;20052;-90
2023/03/19 04:06:17;;;;;;;18.73;11.20;;;;;;;9.05;87.37;101097.22;5085543;28;20040;-91
2023/03/19 04:08:49;;;;;;;19.10;11.15;;;;;;;9.01;88.86;101101.56;5077171;28;20494;-91
2023/03/19 04:11:18;;;;;;;16.80;10.23;;;;;;;8.99;88.51;101100.97;5077098;28;20052;-91
2023/03/19 04:13:46;;;;;;;25.70;11.65;;;;;;;9.02;88.62;101103.22;5077407;28;20059;-91
2023/03/19 04:16:14;;;;;;;20.58;10.48;;;;;;;9.00;88.34;101100.72;5076101;28;20043;-91
2023/03/19 04:18:42;;;;;;;17.67;10.77;;;;;;;8.96;88.36;101099.59;5094869;28;20051;-90
2023/03/19 04:21:10;;;;;;;18.00;10.93;;;;;;;8.93;88.84;101112.91;5076827;28;20063;-91
2023/03/19 04:23:38;;;;;;;21.95;10.75;;;;;;;8.85;89.12;101111.50;5076694;28;20040;-90
2023/03/19 04:26:07;;;;;;;23.55;11.50;;;;;;;9.06;88.17;101111.69;5094322;28;20055;-89
2023/03/19 04:28:35;;;;;;;19.67;11.30;;;;;;;9.12;88.19;101121.59;5074142;28;20056;-90
2023/03/19 04:31:05;;;;;;;22.75;11.75;;;;;;;9.24;87.76;101119.53;5063630;28;20032;-91
2023/03/19 04:33:37;;;;;;;20.05;12.23;;;;;;;9.26;86.35;101122.03;5076923;28;20055;-91
2023/03/19 04:36:06;;;;;;;28.15;12.93;;;;;;;9.05;88.08;101138.16;5095294;28;20048;-91
2023/03/19 04:38:35;;;;;;;28.27;14.07;;;;;;;9.09;88.13;101127.59;5075127;28;20044;-91
2023/03/19 04:41:03;;;;;;;28.92;15.45;;;;;;;9.26;87.75;101143.88;5093971;28;20051;-91
2023/03/19 04:43:34;;;;;;;29.27;15.50;;;;;;;9.19;86.73;101137.78;5076646;28;20509;-92
2023/03/19 04:46:06;;;;;;;30.55;16.33;;;;;;;9.08;87.55;101140.41;5092568;28;20040;-91
2023/03/19 04:48:38;;;;;;;26.52;15.23;;;;;;;9.11;86.66;101145.38;5059995;28;20048;-91
2023/03/19 04:51:08;;;;;;;32.42;16.30;;;;;;;9.07;87.22;101141.50;5094129;28;20047;-91
2023/03/19 04:53:38;;;;;;;31.40;15.70;;;;;;;9.20;86.30;101147.63;5076810;28;20048;-92
2023/03/19 04:56:07;;;;;;;29.67;15.57;;;;;;;9.19;86.38;101149.53;5093736;28;20044;-91
2023/03/19 04:58:35;;;;;;;27.67;15.55;;;;;;;9.21;86.77;101152.00;5085082;28;20048;-91
2023/03/19 05:01:03;;;;;;;29.85;16.33;;;;;;;9.25;87.02;101153.16;5076284;28;20055;-91
2023/03/19 05:03:50;;;;;;;26.35;15.15;;;;;;;9.34;86.24;101157.06;5094011;28;20048;-91
2023/03/19 05:06:18;;;;;;;31.33;16.13;;;;;;;9.26;87.02;101163.00;5094537;28;20479;-91
2023/03/19 05:08:47;;;;;;;28.10;15.25;;;;;;;9.33;86.14;101158.13;5076180;28;20051;-91
2023/03/19 05:11:17;;;;;;;30.20;16.63;;;;;;;9.47;86.03;101166.75;5103618;28;20043;-92
2023/03/19 05:14:01;;;;;;;28.95;15.48;;;;;;;9.51;86.06;101161.59;5118381;28;20044;-90
2023/03/19 05:16:38;;;;;;;30.25;16.83;;;;;;;9.53;86.21;101159.41;5110427;28;20032;-90
2023/03/19 05:19:07;;;;;;;29.42;16.42;;;;;;;9.50;86.91;101166.25;5093560;28;20040;-91
2023/03/19 05:21:36;;;;;;;31.52;15.75;;;;;;;9.52;86.71;101157.78;5092988;28;20074;-92
2023/03/19 05:24:05;;;;;;;29.05;15.40;;;;;;;9.51;87.07;101170.63;5093373;28;20059;-92
2023/03/19 05:26:36;;;;;;;29.55;15.70;;;;;;;9.57;86.51;101176.16;5075702;28;20063;-92
2023/03/19 05:29:25;;;;;;;28.83;17.25;;;;;;;9.47;87.08;101174.94;5076293;28;20044;-91
2023/03/19 05:32:20;;;;;;;33.50;17.38;;;;;;;9.47;87.43;101174.09;5091813;28;20064;-91
2023/03/19 05:34:48;;;;;;;28.90;16.05;;;;;;;9.63;85.85;101175.91;5075691;28;20056;-91
2023/03/19 05:37:17;;;;;;;28.65;16.08;;;;;;;9.67;84.65;101184.41;5092457;28;20044;-91
2023/03/19 05:39:51;;;;;;;29.00;16.50;;;;;;;9.60;84.73;101181.91;5076200;28;20048;-92
2023/03/19 05:42:19;;;;;;;28.63;17.15;;;;;;;9.37;86.51;101183.88;5109238;28;20056;-91
2023/03/19 05:44:47;;;;;;;26.60;16.08;;;;;;;9.20;88.13;101189.44;5080139;28;20051;-91
2023/03/19 05:47:23;;;;;;;29.52;17.08;;;;;;;9.13;88.79;101183.31;5091941;28;20044;-90
2023/03/19 05:49:55;;;;;;;33.53;16.98;;;;;;;9.11;88.77;101191.78;5092515;28;20679;-92
2023/03/19 05:52:23;;;;;;;30.08;16.00;;;;;;;9.19;87.54;101193.22;5093355;28;20498;-91
2023/03/19 05:54:53;;;;;;;32.30;17.27;;;;;;;9.13;88.59;101188.78;5091945;28;20060;-91
2023/03/19 05:57:37;;;;;;;35.53;19.17;;;;;;;9.12;88.74;101189.88;5101330;28;20044;-91
2023/03/19 06:00:13;;;;;;;30.08;17.17;;;;;;;9.14;88.10;101183.06;5100921;28;20052;-91
2023/03/19 06:02:42;;;;;;;36.95;18.55;;;;;;;9.19;87.90;101184.22;5093795;28;20036;-91
2023/03/19 06:05:28;;;;;;;31.08;17.50;;;;;;;8.93;89.94;101192.06;5092431;28;20390;-91
2023/03/19 06:08:03;;;;;;;;;;;;;;;9.55;87.93;101190.88;5092101;28;20056;-92
2023/03/19 06:10:54;;;;;;;31.33;18.00;;;;;;;10.02;84.58;101199.50;5088410;28;19924;-91
2023/03/19 06:13:23;;;;;;;30.98;17.30;;;;;;;10.03;83.92;101192.13;5071857;28;20052;-91
2023/03/19 06:21:41;;;;;;;32.03;17.55;;;;;;;10.32;81.57;101214.50;5086961;28;20040;-89
2023/03/19 06:24:10;;;;;;;33.13;17.63;;;;;;;10.10;83.01;101214.59;5057016;28;20044;-92
2023/03/19 06:26:38;;;;;;;28.58;15.63;;;;;;;9.95;83.14;101210.66;5056600;28;20040;-92
2023/03/19 06:29:13;;;;;;;35.65;16.63;;;;;;;9.63;84.28;101207.91;5056745;28;20043;-93
2023/03/19 06:31:45;;;;;;;34.75;17.52;;;;;;;9.74;84.56;101204.19;5073692;28;20494;-92
2023/03/19 06:34:19;;;;;;;28.42;16.58;;;;;;;9.71;84.65;101209.31;5071944;28;20071;-94
2023/03/19 06:36:47;;;;;;;30.80;17.05;;;;;;;9.77;84.57;101213.75;5070298;28;20052;-95
2023/03/19 06:39:17;;;;;;;29.75;16.52;;;;;;;9.91;83.23;101215.00;5066308;28;20056;-94
2023/03/19 06:41:45;;;;;;;29.20;17.17;;;;;;;9.95;83.22;101215.28;5072076;28;20056;-94
2023/03/19 06:44:17;;;;;;;29.75;15.90;;;;;;;9.99;82.51;101223.81;5076844;28;20061;-94
2023/03/19 06:46:46;;;;;;;29.73;17.52;;;;;;;10.19;82.22;101239.56;5092537;28;20036;-94
2023/03/19 06:49:14;;;;;;;29.17;16.23;;;;;;;10.13;82.21;101230.50;5083246;28;20076;-93
2023/03/19 06:51:42;;;;;;;31.23;16.70;;;;;;;10.11;82.41;101235.38;5073698;28;20078;-94
2023/03/19 06:54:10;;;;;;;27.65;17.05;;;;;;;10.37;81.36;101234.78;5089826;28;20363;-94
2023/03/19 06:56:38;;;;;;;27.55;16.63;;;;;;;10.57;79.96;101228.66;5093850;28;20047;-95
2023/03/19 06:59:11;;;;;;;35.70;16.50;;;;;;;10.57;80.29;101229.47;5082030;28;20438;-95
2023/03/19 07:01:40;;;;;;;28.13;17.42;;;;;;;10.41;81.98;101238.66;5076476;28;20044;-95
2023/03/19 07:04:09;;;;;;;28.45;16.73;;;;;;;10.39;81.50;101246.28;5076903;28;20044;-95
2023/03/19 07:06:37;;;;;;;30.95;16.65;;;;;;;10.37;81.85;101243.81;5082120;28;20052;-94
2023/03/19 07:09:05;;;;;;;29.08;17.58;;;;;;;10.36;81.62;101236.66;5097080;28;20410;-94
2023/03/19 07:11:33;;;;;;;39.33;17.17;;;;;;;10.30;82.14;101237.72;5092433;28;20048;-95
2023/03/19 07:14:03;;;;;;;26.10;15.73;;;;;;;10.50;81.61;101236.28;5098339;28;20044;-94
2023/03/19 07:16:31;;;;;;;26.42;16.02;;;;;;;10.53;81.92;101235.72;5090503;28;20052;-95
2023/03/19 07:18:59;;;;;;;26.90;16.20;;;;;;;10.60;82.19;101236.31;5091432;28;20073;-95
2023/03/19 07:21:27;;;;;;;28.60;16.35;;;;;;;10.82;80.65;101229.88;5088471;28;20047;-95
2023/03/19 07:23:55;;;;;;;30.08;16.30;;;;;;;10.84;80.08;101234.00;5085055;28;20048;-94
2023/03/19 07:26:23;;;;;;;28.13;16.20;;;;;;;10.87;79.65;101229.91;5089890;28;20051;-95
2023/03/19 07:28:51;;;;;;;29.77;16.80;;;;;;;11.00;79.18;101237.66;5087289;28;20429;-93
2023/03/19 07:31:19;;;;;;;32.20;17.80;;;;;;;11.25;78.92;101249.00;5094106;28;20044;-94
2023/03/19 07:33:47;;;;;;;30.58;15.98;;;;;;;11.31;78.35;101249.81;5107410;28;20043;-94
2023/03/19 07:36:15;;;;;;;28.27;16.17;;;;;;;11.48;76.83;101261.41;5092294;28;20052;-94
2023/03/19 07:38:43;;;;;;;26.92;15.68;;;;;;;11.66;76.08;101260.09;5091613;28;20366;-93
2023/03/19 07:41:10;;;;;;;30.08;15.75;;;;;;;11.76;75.24;101262.03;5094445;28;20044;-80
2023/03/19 07:43:38;;;;;;;26.45;15.07;;;;;;;11.78;74.78;101262.56;5088628;28;20052;-80
2023/03/19 07:46:06;;;;;;;25.15;14.27;;;;;;;12.01;74.83;101273.28;5062628;28;20048;-81
2023/03/19 07:48:36;;;;;;;23.17;13.77;;;;;;;12.01;74.73;101268.63;5057084;28;20044;-81
2023/03/19 07:51:04;;;;;;;24.80;13.73;;;;;;;12.24;75.26;101266.50;5059045;28;20051;-81
2023/03/19 07:53:33;;;;;;;25.40;13.93;;;;;;;12.28;74.26;101270.34;5063319;28;20056;-81
2023/03/19 07:56:01;;;;;;;21.27;13.07;;;;;;;12.03;78.54;101277.41;5078216;28;20044;-81
2023/03/19 07:58:29;;;;;;;20.20;12.35;;;;;;;12.46;74.18;101268.13;5074710;28;20052;-81
2023/03/19 08:00:57;;;;;;;20.05;12.75;;;;;;;12.60;73.63;101265.63;5034918;28;20055;-81
2023/03/19 08:03:25;;;;;;;23.65;12.20;;;;;;;12.46;76.22;101266.19;5071598;28;20405;-81
2023/03/19 08:05:53;;;;;;;21.27;11.55;;;;;;;12.09;78.70;101264.56;5093475;28;20459;-81
2023/03/19 08:08:21;;;;;;;20.55;11.95;;;;;;;12.52;76.41;101255.22;5075392;28;20040;-81
2023/03/19 08:10:53;;;;;;;16.08;10.77;;;;;;;12.28;81.24;101267.59;5076730;28;20372;-81
2023/03/19 08:13:21;;;;;;;18.83;12.10;;;;;;;12.45;80.98;101260.97;5073215;28;20053;-81
2023/03/19 08:15:53;;;;;;;17.65;11.07;;;;;;;12.80;78.92;101255.72;5085560;28;20395;-81
2023/03/19 08:18:21;;;;;;;17.95;11.20;;;;;;;12.57;80.24;101252.47;5068982;28;20044;-79
2023/03/19 08:20:49;;;;;;;22.08;12.00;;;;;;;12.18;81.01;101262.09;5075275;28;20051;-79
2023/03/19 08:23:18;;;;;;;20.58;11.95;;;;;;;12.56;79.85;101264.56;5075931;28;20047;-79
2023/03/19 08:25:46;;;;;;;19.52;11.20;;;;;;;12.80;75.77;101264.78;5046727;28;20047;-79
2023/03/19 08:28:14;;;;;;;19.35;11.55;;;;;;;12.68;77.29;101269.75;5076672;28;20040;-79
2023/03/19 08:30:45;;;;;;;18.55;11.02;;;;;;;12.62;77.20;101272.50;5059223;28;20387;-79
2023/03/19 08:33:13;;;;;;;19.63;11.85;;;;;;;12.73;76.12;101264.25;5092555;28;20041;-80
2023/03/19 08:35:41;;;;;;;21.55;11.68;;;;;;;12.82;77.18;101273.56;5076643;28;20055;-80
2023/03/19 08:38:09;;;;;;;19.10;11.80;;;;;;;13.30;75.09;101270.38;5055174;28;20040;-80
2023/03/19 08:40:38;;;;;;;21.15;11.05;;;;;;;13.31;75.09;101273.97;5067210;28;20052;-79
2023/03/19 08:43:06;;;;;;;15.82;9.57;;;;;;;13.03;72.88;101287.25;5057601;28;20395;-81
2023/03/19 08:45:34;;;;;;;18.42;10.20;;;;;;;13.45;69.96;101271.44;5058287;28;20051;-79
2023/03/19 08:48:03;;;;;;;17.73;9.65;;;;;;;13.46;69.45;101274.97;5060395;28;20058;-80
2023/03/19 08:50:31;;;;;;;19.42;10.98;;;;;;;13.19;72.89;101289.94;5064015;28;20402;-80
2023/03/19 08:52:59;;;;;;;20.75;10.15;;;;;;;13.41;72.02;101290.38;5072446;28;20044;-80
2023/03/19 08:55:28;;;;;;;17.80;10.25;;;;;;;13.20;71.78;101288.84;5044126;28;20071;-80
2023/03/19 08:57:55;;;;;;;18.23;10.05;;;;;;;13.34;69.20;101287.13;5076051;28;20130;-81
2023/03/19 09:00:25;;;;;;;17.42;10.05;;;;;;;13.44;70.04;101281.59;5039835;28;20525;-82
2023/03/19 09:02:53;;;;;;;17.20;10.65;;;;;;;13.72;68.82;101292.19;5076970;28;20471;-79
2023/03/19 09:05:22;;;;;;;16.35;10.38;;;;;;;13.80;68.39;101286.13;5088755;28;20044;-80
2023/03/19 09:07:51;;;;;;;16.80;9.82;;;;;;;13.47;69.91;101290.41;5054964;28;20494;-78
2023/03/19 09:10:19;;;;;;;16.20;9.55;;;;;;;13.87;68.00;101291.28;5073384;28;20045;-80
2023/03/19 09:12:47;;;;;;;12.77;8.52;;;;;;;14.28;66.23;101292.94;5072900;28;20383;-79
2023/03/19 09:15:15;;;;;;;11.68;8.18;;;;;;;14.21;66.68;101296.00;5075304;28;20048;-79
2023/03/19 09:17:43;;;;;;;15.00;9.35;;;;;;;14.47;66.60;101295.78;5084582;28;20482;-79
2023/03/19 09:20:12;;;;;;;17.95;9.10;;;;;;;13.57;67.79;101285.69;5077216;28;20530;-78
2023/03/19 09:22:40;;;;;;;17.23;10.25;;;;;;;13.65;69.91;101292.50;5072905;28;20051;-79
2023/03/19 09:25:08;;;;;;;19.35;10.05;;;;;;;13.91;67.79;101297.88;5072777;28;20044;-79
2023/03/19 09:27:36;;;;;;;14.80;8.90;;;;;;;14.31;66.22;101295.09;5072363;28;20052;-79
2023/03/19 09:30:08;;;;;;;12.98;8.60;;;;;;;14.46;66.19;101307.94;5085638;28;20059;-79
2023/03/19 09:32:36;;;;;;;15.63;8.50;;;;;;;14.14;67.00;101301.03;5090039;28;20752;-78
2023/03/19 09:35:05;;;;;;;11.27;8.48;;;;;;;13.82;66.13;101302.31;5080463;28;20044;-80
2023/03/19 09:37:33;;;;;;;12.30;7.78;;;;;;;14.19;65.79;101303.75;5092320;28;20048;-79
2023/03/19 09:40:03;;;;;;;15.77;8.77;;;;;;;14.19;68.41;101306.50;5087071;28;20055;-80
2023/03/19 09:42:50;;;;;;;14.88;9.15;;;;;;;14.25;67.08;101301.75;5072566;28;20045;-79
2023/03/19 09:45:19;;;;;;;12.43;8.40;;;;;;;14.35;67.20;101314.63;5087289;28;20052;-79
2023/03/19 09:47:52;;;;;;;12.23;7.97;;;;;;;14.23;64.54;101306.75;5072170;28;20698;-79
2023/03/19 09:50:23;;;;;;;12.73;7.40;;;;;;;14.13;64.49;101318.63;5072491;28;20052;-78
2023/03/19 09:53:11;;;;;;;13.68;7.75;;;;;;;14.22;61.88;101300.41;5083881;28;20051;-78
2023/03/19 09:55:44;;;;;;;12.32;7.47;;;;;;;13.66;64.33;101307.94;5089714;28;20498;-79
2023/03/19 09:58:19;;;;;;;10.10;7.72;;;;;;;14.01;63.44;101309.91;5092325;28;20047;-78
2023/03/19 10:00:50;;;;;;;12.32;8.60;;;;;;;14.33;63.15;101306.66;5085659;28;20040;-79
2023/03/19 10:03:26;;;;;;;15.30;8.35;;;;;;;14.12;62.04;101305.97;5080388;28;20036;-79
2023/03/19 10:06:06;;;;;;;16.58;9.85;;;;;;;14.05;67.97;101305.47;5079719;28;20051;-78
2023/03/19 10:08:35;;;;;;;16.67;9.55;;;;;;;14.27;66.26;101301.47;5085641;28;20510;-79
2023/03/19 10:11:21;;;;;;;15.38;9.30;;;;;;;14.45;64.99;101295.28;5077875;28;20041;-78
2023/03/19 10:13:58;;;;;;;14.27;8.82;;;;;;;15.08;65.22;101308.47;5077873;28;20044;-80
2023/03/19 10:16:27;;;;;;;13.60;8.77;;;;;;;15.21;62.60;101302.25;5082065;28;20049;-80
2023/03/19 10:19:00;;;;;;;13.23;8.45;;;;;;;15.25;60.95;101306.06;5071912;28;20044;-80
2023/03/19 10:21:52;;;;;;;14.18;8.57;;;;;;;16.10;59.39;101297.22;5070622;28;20052;-80
2023/03/19 10:24:30;;;;;;;13.48;8.38;;;;;;;15.72;61.51;101300.78;5071009;28;20055;-80
2023/03/19 10:27:04;;;;;;;14.10;8.52;;;;;;;16.46;58.95;101290.28;5069950;28;20047;-80
2023/03/19 10:29:33;;;;;;;13.70;7.55;;;;;;;16.24;54.29;101299.22;5091646;28;20055;-80
2023/03/19 10:32:11;;;;;;;14.65;7.47;;;;;;;16.34;53.04;101296.28;5074020;28;20044;-80
2023/03/19 10:34:52;;;;;;;13.40;7.47;;;;;;;16.23;53.61;101298.38;5090198;28;20637;-80
2023/03/19 10:37:25;;;;;;;13.13;6.68;;;;;;;16.46;51.27;101290.28;5090408;28;20044;-80
2023/03/19 10:39:58;;;;;;;15.40;7.57;;;;;;;16.36;49.67;101285.75;5071456;28;20051;-80
2023/03/19 10:42:42;;;;;;;15.23;8.15;;;;;;;16.63;50.09;101286.94;5087061;28;20028;-80
2023/03/19 10:45:30;;;;;;;13.32;7.75;;;;;;;16.48;50.03;101281.69;5071140;28;20170;-80
2023/03/19 10:48:01;;;;;;;14.15;8.05;;;;;;;16.98;50.55;101288.53;5076536;28;20059;-80
2023/03/19 10:50:44;;;;;;;15.73;8.98;;;;;;;16.54;51.83;101286.00;5091242;28;20051;-80
2023/03/19 10:53:12;;;;;;;17.65;10.05;;;;;;;17.04;50.87;101279.84;5071414;28;20551;-80
2023/03/19 10:56:05;;;;;;;18.70;9.77;;;;;;;16.81;52.74;101267.00;5084079;28;20067;-80
2023/03/19 10:58:35;;;;;;;18.17;8.90;;;;;;;16.72;52.02;101270.47;5075191;28;20036;-80
2023/03/19 11:01:05;;;;;;;14.55;9.43;;;;;;;16.33;53.53;101275.28;5091562;28;20047;-82
2023/03/19 11:03:51;;;;;;;17.60;8.90;;;;;;;16.77;54.47;101266.81;5091172;28;20044;-81
2023/03/19 11:06:19;;;;;;;15.80;8.75;;;;;;;17.57;52.29;101265.75;5091229;28;20044;-78
2023/03/19 11:08:56;;;;;;;14.85;8.02;;;;;;;17.80;47.58;101257.50;5091131;28;20071;-78
2023/03/19 11:11:26;;;;;;;14.98;7.93;;;;;;;17.93;48.39;101262.16;5077538;28;20044;-79
2023/03/19 11:13:55;;;;;;;15.48;8.70;;;;;;;17.33;49.98;101255.75;5087304;28;20036;-78
2023/03/19 11:16:23;;;;;;;14.05;8.07;;;;;;;17.80;47.10;101257.50;5075080;28;20378;-78
2023/03/19 11:18:51;;;;;;;14.32;8.10;;;;;;;17.24;50.45;101254.84;5056506;28;20051;-79
2023/03/19 11:21:27;;;;;;;14.88;8.65;;;;;;;17.80;48.14;101252.75;5094548;28;20067;-79
2023/03/19 11:24:11;;;;;;;13.23;7.63;;;;;;;18.12;48.06;101252.88;5084406;28;20386;-79
2023/03/19 11:26:39;;;;;;;16.77;8.68;;;;;;;18.27;44.92;101252.50;5081538;28;20045;-78
2023/03/19 11:29:09;;;;;;;14.73;8.25;;;;;;;17.88;47.45;101247.63;5094699;28;20394;-79
2023/03/19 11:32:02;;;;;;;13.25;7.00;;;;;;;17.85;47.60;101240.78;5094572;28;20044;-79
2023/03/19 11:35:12;;;;;;;13.07;8.15;;;;;;;18.08;46.75;101232.50;5095185;28;20474;-80
2023/03/19 11:37:58;;;;;;;14.38;8.10;;;;;;;18.31;43.92;101233.28;5094733;28;20046;-80
2023/03/19 11:40:44;;;;;;;14.73;7.82;;;;;;;18.23;44.54;101225.75;5095338;28;20040;-79
2023/03/19 11:43:28;;;;;;;11.93;7.47;;;;;;;18.39;44.74;101226.16;5091693;28;20044;-79